createdAt,value
2022-10-13T00:01:12.923Z,90.88
2022-10-13T00:03:17.915Z,91.80
2022-10-13T00:05:21.774Z,91.47
2022-10-13T00:07:25.614Z,91.00
2022-10-13T00:09:29.372Z,90.87
2022-10-13T00:11:33.732Z,91.31
2022-10-13T00:13:38.022Z,91.45
2022-10-13T00:15:42.761Z,91.62
2022-10-13T00:17:48.331Z,92.05
2022-10-13T00:19:51.887Z,91.45
2022-10-13T00:21:55.724Z,91.45
2022-10-13T00:24:00.021Z,91.31
2022-10-13T00:26:06.081Z,90.64
2022-10-13T00:28:09.654Z,90.74
2022-10-13T00:30:14.221Z,90.40
2022-10-13T00:32:18.050Z,91.15
2022-10-13T00:34:23.518Z,90.40
2022-10-13T00:36:27.249Z,90.70
2022-10-13T00:38:30.754Z,90.65
2022-10-13T00:40:34.732Z,90.51
2022-10-13T00:42:38.438Z,90.15
2022-10-13T00:45:04.025Z,90.52
2022-10-13T00:47:07.826Z,90.41
2022-10-13T00:49:16.572Z,89.89
2022-10-13T00:51:27.963Z,90.73
2022-10-13T00:53:35.760Z,90.44
2022-10-13T00:55:41.675Z,90.08
2022-10-13T00:57:47.402Z,90.27
2022-10-13T00:59:51.312Z,89.74
2022-10-13T01:01:55.550Z,89.78
2022-10-13T01:03:59.124Z,90.56
2022-10-13T01:06:05.563Z,91.08
2022-10-13T01:08:12.479Z,91.13
2022-10-13T01:10:24.822Z,90.54
2022-10-13T01:12:42.433Z,90.65
2022-10-13T01:14:54.728Z,90.76
2022-10-13T01:17:07.656Z,90.35
2022-10-13T01:19:27.232Z,90.62
2022-10-13T01:21:35.043Z,90.97
2022-10-13T01:24:16.350Z,91.08
2022-10-13T01:26:44.603Z,90.61
2022-10-13T01:29:09.061Z,90.79
2022-10-13T01:31:22.657Z,90.58
2022-10-13T01:33:36.543Z,90.61
2022-10-13T01:35:50.279Z,90.85
2022-10-13T01:37:59.390Z,91.19
2022-10-13T01:40:08.217Z,90.73
2022-10-13T01:42:17.822Z,90.22
2022-10-13T01:44:27.141Z,89.85
2022-10-13T01:46:36.140Z,89.90
2022-10-13T01:48:41.727Z,89.89
2022-10-13T01:50:46.000Z,89.53
2022-10-13T01:52:51.697Z,89.61
2022-10-13T01:54:57.037Z,89.87
2022-10-13T01:57:01.091Z,89.91
2022-10-13T01:59:08.510Z,89.88
2022-10-13T02:01:25.472Z,89.24
2022-10-13T02:03:40.288Z,89.68
2022-10-13T02:05:50.487Z,89.71
2022-10-13T02:08:01.418Z,89.64
2022-10-13T02:10:13.322Z,89.34
2022-10-13T02:12:22.817Z,89.96
2022-10-13T02:14:29.897Z,89.26
2022-10-13T02:16:37.759Z,89.47
2022-10-13T02:18:43.841Z,89.63
2022-10-13T02:20:48.569Z,89.46
2022-10-13T02:22:57.062Z,89.15
2022-10-13T02:25:00.797Z,89.92
2022-10-13T02:27:06.708Z,89.32
2022-10-13T02:29:11.126Z,89.29
2022-10-13T02:31:14.399Z,89.28
2022-10-13T02:33:18.444Z,89.44
2022-10-13T02:35:23.127Z,89.49
2022-10-13T02:37:26.554Z,89.45
2022-10-13T02:39:29.833Z,89.54
2022-10-13T02:41:33.084Z,89.18
2022-10-13T02:43:37.979Z,89.68
2022-10-13T02:45:41.310Z,89.46
2022-10-13T02:47:44.567Z,89.95
2022-10-13T02:49:47.811Z,89.85
2022-10-13T02:51:53.425Z,90.20
2022-10-13T02:53:56.775Z,90.30
2022-10-13T02:56:00.147Z,90.59
2022-10-13T02:58:04.334Z,90.28
2022-10-13T03:00:09.332Z,90.08
2022-10-13T03:02:12.968Z,90.05
2022-10-13T03:04:16.469Z,90.04
2022-10-13T03:06:19.701Z,90.06
2022-10-13T03:08:25.001Z,90.30
2022-10-13T03:10:28.460Z,89.87
2022-10-13T03:12:33.513Z,89.63
2022-10-13T03:14:37.242Z,89.38
2022-10-13T03:16:40.765Z,89.25
2022-10-13T03:18:46.390Z,89.13
2022-10-13T03:20:57.706Z,88.59
2022-10-13T03:23:01.063Z,88.80
2022-10-13T03:25:06.594Z,89.08
2022-10-13T03:27:10.071Z,88.72
2022-10-13T03:29:14.930Z,89.24
2022-10-13T03:31:19.007Z,89.11
2022-10-13T03:33:23.249Z,88.98
2022-10-13T03:35:28.961Z,89.00
2022-10-13T03:37:32.282Z,89.15
2022-10-13T03:39:35.995Z,88.92
2022-10-13T03:41:41.179Z,89.00
2022-10-13T03:43:45.675Z,88.79
2022-10-13T03:45:56.434Z,89.01
2022-10-13T03:47:59.780Z,88.86
2022-10-13T03:50:03.200Z,89.25
2022-10-13T03:52:06.824Z,89.12
2022-10-13T03:54:12.219Z,88.48
2022-10-13T03:56:17.600Z,88.83
2022-10-13T03:58:29.540Z,88.88
2022-10-13T04:00:32.745Z,89.17
2022-10-13T04:02:35.999Z,88.92
2022-10-13T04:04:39.924Z,89.43
2022-10-13T04:06:43.390Z,89.25
2022-10-13T04:08:46.733Z,89.87
2022-10-13T04:10:49.941Z,90.30
2022-10-13T04:12:53.140Z,90.23
2022-10-13T04:14:57.814Z,90.13
2022-10-13T04:17:01.074Z,90.07
2022-10-13T04:19:06.767Z,90.17
2022-10-13T04:21:11.093Z,89.75
2022-10-13T04:23:14.588Z,89.55
2022-10-13T04:25:24.114Z,89.43
2022-10-13T04:27:27.421Z,89.18
2022-10-13T04:29:30.795Z,88.76
2022-10-13T04:31:35.819Z,88.81
2022-10-13T04:33:39.161Z,88.48
2022-10-13T04:35:43.155Z,88.42
2022-10-13T04:37:46.397Z,88.73
2022-10-13T04:39:49.729Z,88.58
2022-10-13T04:41:52.953Z,88.64
2022-10-13T04:43:56.324Z,88.65
2022-10-13T04:46:02.898Z,88.69
2022-10-13T04:48:07.931Z,88.58
2022-10-13T04:50:11.893Z,88.21
2022-10-13T04:52:15.145Z,88.90
2022-10-13T04:54:18.453Z,89.23
2022-10-13T04:56:21.670Z,89.02
2022-10-13T04:58:24.962Z,88.91
2022-10-13T05:00:28.686Z,88.98
2022-10-13T05:02:32.045Z,88.70
2022-10-13T05:04:36.972Z,88.84
2022-10-13T05:07:05.311Z,88.77
2022-10-13T05:09:06.005Z,88.98
2022-10-13T05:11:09.362Z,88.77
2022-10-13T05:13:12.611Z,88.91
2022-10-13T05:15:16.167Z,88.76
2022-10-13T05:17:19.452Z,88.58
2022-10-13T05:19:22.794Z,88.98
2022-10-13T05:21:29.765Z,88.61
2022-10-13T05:23:33.658Z,88.23
2022-10-13T05:25:37.982Z,88.31
2022-10-13T05:27:41.333Z,88.54
2022-10-13T05:29:45.850Z,88.62
2022-10-13T05:31:49.104Z,88.31
2022-10-13T05:33:53.142Z,89.17
2022-10-13T05:36:05.317Z,89.77
2022-10-13T05:38:13.857Z,89.57
2022-10-13T05:40:21.434Z,89.08
2022-10-13T05:42:24.617Z,88.92
2022-10-13T05:44:28.014Z,88.74
2022-10-13T05:46:32.045Z,89.22
2022-10-13T05:48:35.801Z,89.44
2022-10-13T05:50:39.025Z,88.73
2022-10-13T05:52:43.696Z,88.81
2022-10-13T05:54:51.770Z,88.92
2022-10-13T05:56:58.744Z,88.84
2022-10-13T05:59:07.902Z,89.35
2022-10-13T06:01:14.838Z,88.95
2022-10-13T06:03:23.462Z,89.29
2022-10-13T06:05:28.637Z,89.39
2022-10-13T06:07:33.018Z,89.04
2022-10-13T06:09:39.063Z,89.20
2022-10-13T06:11:43.670Z,89.54
2022-10-13T06:13:46.990Z,89.89
2022-10-13T06:15:50.280Z,89.58
2022-10-13T06:17:53.568Z,89.80
2022-10-13T06:19:56.883Z,89.86
2022-10-13T06:22:03.596Z,89.90
2022-10-13T06:24:07.626Z,89.49
2022-10-13T06:26:10.854Z,89.56
2022-10-13T06:28:16.621Z,89.29
2022-10-13T06:30:19.963Z,89.04
2022-10-13T06:32:23.374Z,89.13
2022-10-13T06:34:26.788Z,89.22
2022-10-13T06:36:30.040Z,89.33
2022-10-13T06:38:33.890Z,89.46
2022-10-13T06:40:37.153Z,88.98
2022-10-13T06:42:40.642Z,89.12
2022-10-13T06:44:46.853Z,88.79
2022-10-13T06:46:50.343Z,89.55
2022-10-13T06:48:54.340Z,89.48
2022-10-13T06:51:02.345Z,89.54
2022-10-13T06:53:05.693Z,89.31
2022-10-13T06:55:09.708Z,89.50
2022-10-13T06:57:13.050Z,90.21
2022-10-13T06:59:16.577Z,90.82
2022-10-13T07:01:23.888Z,90.71
2022-10-13T07:03:27.221Z,90.63
2022-10-13T07:05:30.649Z,90.41
2022-10-13T07:07:34.302Z,90.35
2022-10-13T07:09:37.693Z,90.34
2022-10-13T07:11:41.555Z,91.02
2022-10-13T07:13:47.141Z,91.38
2022-10-13T07:15:52.154Z,90.96
2022-10-13T07:17:57.285Z,90.94
2022-10-13T07:20:03.669Z,91.28
2022-10-13T07:22:10.873Z,90.90
2022-10-13T07:24:14.652Z,90.81
2022-10-13T07:26:18.639Z,90.71
2022-10-13T07:28:22.304Z,91.09
2022-10-13T07:30:27.049Z,90.98
2022-10-13T07:32:31.130Z,90.87
2022-10-13T07:34:36.331Z,90.93
2022-10-13T07:36:41.836Z,91.26
2022-10-13T07:38:45.593Z,91.17
2022-10-13T07:40:49.444Z,91.81
2022-10-13T07:42:53.072Z,91.85
2022-10-13T07:44:56.639Z,91.86
2022-10-13T07:47:02.432Z,91.70
2022-10-13T07:49:06.105Z,91.00
2022-10-13T07:51:13.666Z,91.37
2022-10-13T07:53:17.390Z,92.40
2022-10-13T07:55:20.985Z,92.36
2022-10-13T07:57:29.908Z,92.00
2022-10-13T07:59:34.263Z,92.45
2022-10-13T08:01:38.471Z,92.10
2022-10-13T08:03:45.755Z,91.88
2022-10-13T08:05:56.312Z,92.28
2022-10-13T08:08:01.358Z,91.70
2022-10-13T08:10:06.089Z,91.55
2022-10-13T08:12:09.823Z,91.57
2022-10-13T08:14:15.204Z,92.22
2022-10-13T08:16:19.194Z,92.72
2022-10-13T08:18:22.857Z,92.16
2022-10-13T08:20:32.126Z,92.66
2022-10-13T08:22:45.261Z,92.16
2022-10-13T08:24:50.359Z,92.63
2022-10-13T08:26:54.391Z,91.61
2022-10-13T08:29:16.654Z,91.63
2022-10-13T08:31:22.442Z,91.45
2022-10-13T08:33:29.299Z,91.57
2022-10-13T08:35:34.780Z,91.63
2022-10-13T08:37:38.573Z,91.58
2022-10-13T08:39:42.180Z,91.51
2022-10-13T08:41:47.562Z,91.33
2022-10-13T08:44:33.638Z,90.69
2022-10-13T08:46:24.690Z,89.61
2022-10-13T08:48:32.876Z,88.59
2022-10-13T08:50:40.569Z,87.94
2022-10-13T08:52:48.674Z,87.55
2022-10-13T08:54:53.114Z,86.39
2022-10-13T08:56:58.565Z,85.39
2022-10-13T08:59:04.784Z,84.59
2022-10-13T09:01:14.972Z,83.63
2022-10-13T09:03:26.824Z,83.74
2022-10-13T09:05:39.135Z,83.83
2022-10-13T09:07:42.829Z,83.53
2022-10-13T09:09:46.537Z,81.91
2022-10-13T09:11:51.897Z,80.85
2022-10-13T09:13:59.997Z,80.41
2022-10-13T09:16:03.560Z,79.81
2022-10-13T09:18:12.264Z,79.28
2022-10-13T09:20:21.496Z,79.63
2022-10-13T09:22:27.625Z,78.92
2022-10-13T09:24:31.300Z,78.17
2022-10-13T09:26:39.302Z,76.58
2022-10-13T09:28:42.785Z,77.07
2022-10-13T09:30:49.775Z,76.07
2022-10-13T09:32:57.470Z,75.27
2022-10-13T09:35:22.169Z,72.97
2022-10-13T09:37:27.264Z,73.24
2022-10-13T09:39:31.793Z,73.47
2022-10-13T09:41:36.722Z,72.88
2022-10-13T09:43:44.413Z,72.04
2022-10-13T09:45:55.194Z,71.77
2022-10-13T09:48:04.802Z,71.50
2022-10-13T09:50:19.458Z,71.33
2022-10-13T09:52:25.390Z,72.02
2022-10-13T09:54:38.393Z,72.57
2022-10-13T09:56:47.704Z,72.23
2022-10-13T09:58:57.221Z,72.13
2022-10-13T10:01:03.544Z,71.61
2022-10-13T10:03:12.398Z,71.21
2022-10-13T10:05:22.774Z,70.85
2022-10-13T10:07:30.835Z,70.48
2022-10-13T10:09:41.344Z,68.97
2022-10-13T10:11:49.109Z,67.75
2022-10-13T10:13:53.849Z,68.31
2022-10-13T10:16:04.061Z,68.38
2022-10-13T10:18:14.224Z,68.14
2022-10-13T10:20:44.776Z,67.58
2022-10-13T10:22:57.674Z,67.09
2022-10-13T10:25:11.936Z,65.58
2022-10-13T10:29:33.966Z,65.58
2022-10-13T10:31:47.412Z,65.87
2022-10-13T10:34:06.150Z,65.85
2022-10-13T10:36:17.203Z,65.50
2022-10-13T10:38:34.464Z,66.36
2022-10-13T10:40:47.555Z,66.58
2022-10-13T10:43:06.253Z,65.96
2022-10-13T10:45:18.808Z,64.68
2022-10-13T10:47:29.302Z,64.98
2022-10-13T10:49:36.586Z,64.79
2022-10-13T10:51:40.694Z,64.90
2022-10-13T10:53:55.080Z,64.65
2022-10-13T10:56:05.827Z,65.14
2022-10-13T10:58:23.885Z,64.97
2022-10-13T11:02:48.573Z,66.27
2022-10-13T11:04:55.457Z,66.96
2022-10-13T11:07:00.682Z,68.00
2022-10-13T11:09:05.971Z,68.32
2022-10-13T11:11:37.834Z,69.12
2022-10-13T11:13:55.124Z,69.64
2022-10-13T11:15:58.882Z,69.95
2022-10-13T11:18:02.779Z,70.46
2022-10-13T11:20:59.854Z,70.54
2022-10-13T11:23:31.795Z,70.73
2022-10-13T11:25:40.179Z,71.66
2022-10-13T11:27:46.948Z,71.53
2022-10-13T11:29:57.060Z,71.29
2022-10-13T11:32:00.805Z,71.29
2022-10-13T11:34:05.530Z,70.96
2022-10-13T11:36:38.239Z,70.40
2022-10-13T11:38:44.668Z,70.08
2022-10-13T11:41:05.715Z,68.76
2022-10-13T11:43:36.362Z,68.14
2022-10-13T11:45:53.227Z,67.87
2022-10-13T11:48:19.744Z,67.05
2022-10-13T11:50:30.447Z,66.68
2022-10-13T11:52:50.324Z,66.74
2022-10-13T11:54:59.570Z,65.97
2022-10-13T11:57:04.839Z,65.99
2022-10-13T11:59:22.073Z,66.16
2022-10-13T12:01:25.796Z,66.83
2022-10-13T12:03:32.132Z,67.13
2022-10-13T12:05:36.287Z,67.49
2022-10-13T12:07:44.186Z,67.87
2022-10-13T12:09:53.557Z,67.98
2022-10-13T12:12:03.258Z,68.28
2022-10-13T12:14:17.814Z,68.03
2022-10-13T12:16:23.456Z,67.79
2022-10-13T12:18:30.272Z,67.79
2022-10-13T12:20:34.629Z,67.47
2022-10-13T12:22:40.349Z,67.27
2022-10-13T12:24:59.169Z,67.44
2022-10-13T12:27:13.349Z,67.60
2022-10-13T12:29:19.386Z,67.19
2022-10-13T12:31:25.350Z,67.41
2022-10-13T12:33:32.495Z,67.44
2022-10-13T12:35:37.264Z,67.81
2022-10-13T12:37:42.568Z,68.14
2022-10-13T12:39:49.940Z,68.19
2022-10-13T12:41:55.947Z,68.43
2022-10-13T12:44:04.056Z,68.51
2022-10-13T12:46:11.575Z,68.37
2022-10-13T12:48:33.242Z,68.39
2022-10-13T12:50:39.178Z,68.73
2022-10-13T12:52:44.025Z,68.85
2022-10-13T12:54:52.261Z,69.02
2022-10-13T12:56:59.439Z,69.25
2022-10-13T12:59:04.000Z,69.42
2022-10-13T13:01:11.435Z,69.07
2022-10-13T13:03:24.769Z,69.17
2022-10-13T13:05:31.828Z,68.86
2022-10-13T13:07:39.274Z,69.20
2022-10-13T13:09:43.283Z,69.32
2022-10-13T13:11:49.306Z,69.55
2022-10-13T13:13:53.139Z,69.93
2022-10-13T13:16:15.316Z,70.02
2022-10-13T13:18:35.972Z,70.39
2022-10-13T13:20:39.962Z,70.26
2022-10-13T13:22:43.683Z,70.49
2022-10-13T13:24:47.931Z,70.43
2022-10-13T13:26:53.417Z,70.24
2022-10-13T13:28:58.373Z,70.63
2022-10-13T13:31:02.579Z,70.39
2022-10-13T13:33:06.317Z,70.46
2022-10-13T13:35:11.399Z,70.42
2022-10-13T13:37:18.822Z,70.61
2022-10-13T13:39:23.137Z,70.61
2022-10-13T13:41:31.151Z,70.73
2022-10-13T13:43:36.873Z,70.78
2022-10-13T13:45:41.469Z,70.88
2022-10-13T13:47:46.171Z,71.02
2022-10-13T13:49:51.097Z,71.02
2022-10-13T13:51:55.428Z,71.22
2022-10-13T13:53:59.617Z,70.90
2022-10-13T13:56:04.032Z,70.96
2022-10-13T13:58:08.372Z,71.48
2022-10-13T14:00:17.600Z,71.71
2022-10-13T14:02:26.664Z,71.96
2022-10-13T14:04:31.949Z,71.90
2022-10-13T14:06:36.895Z,72.08
2022-10-13T14:08:43.038Z,71.85
2022-10-13T14:10:47.936Z,72.10
2022-10-13T14:12:55.765Z,72.09
2022-10-13T14:15:00.342Z,72.22
2022-10-13T14:17:07.265Z,72.67
2022-10-13T14:19:11.471Z,72.85
2022-10-13T14:21:15.954Z,73.10
2022-10-13T14:23:20.055Z,73.30
2022-10-13T14:25:24.898Z,73.74
2022-10-13T14:27:29.050Z,74.05
2022-10-13T14:29:33.643Z,74.29
2022-10-13T14:31:37.928Z,74.49
2022-10-13T14:33:44.563Z,74.61
2022-10-13T14:35:48.925Z,75.04
2022-10-13T14:37:53.484Z,75.15
2022-10-13T14:39:57.422Z,75.24
2022-10-13T14:42:01.857Z,75.55
2022-10-13T14:44:06.395Z,75.88
2022-10-13T14:46:11.149Z,76.72
2022-10-13T14:48:15.638Z,76.88
2022-10-13T14:50:22.273Z,77.32
2022-10-13T14:52:32.699Z,77.89
2022-10-13T14:54:41.157Z,77.77
2022-10-13T14:56:48.565Z,78.35
2022-10-13T14:58:54.459Z,78.46
2022-10-13T15:00:59.792Z,78.60
2022-10-13T15:03:04.731Z,78.98
2022-10-13T15:05:09.662Z,79.37
2022-10-13T15:07:16.129Z,79.49
2022-10-13T15:09:25.586Z,79.84
2022-10-13T15:11:38.610Z,80.61
2022-10-13T15:13:43.788Z,80.65
2022-10-13T15:15:49.251Z,80.97
2022-10-13T15:17:53.719Z,81.70
2022-10-13T15:19:58.436Z,81.91
2022-10-13T15:22:03.116Z,81.61
2022-10-13T15:24:09.640Z,81.70
2022-10-13T15:26:15.732Z,82.04
2022-10-13T15:28:20.045Z,81.85
2022-10-13T15:30:24.949Z,82.07
2022-10-13T15:32:29.372Z,81.96
2022-10-13T15:34:39.775Z,82.10
2022-10-13T15:36:44.806Z,82.11
2022-10-13T15:38:49.184Z,82.63
2022-10-13T15:41:00.808Z,82.70
2022-10-13T15:43:05.273Z,82.98
2022-10-13T15:45:11.589Z,83.46
2022-10-13T15:47:17.450Z,83.10
2022-10-13T15:49:22.417Z,83.57
2022-10-13T15:51:27.416Z,83.25
2022-10-13T15:53:32.480Z,83.60
2022-10-13T15:55:37.386Z,83.35
2022-10-13T15:57:44.117Z,83.08
2022-10-13T15:59:48.907Z,83.29
2022-10-13T16:01:54.070Z,83.36
2022-10-13T16:03:58.947Z,83.18
2022-10-13T16:06:06.657Z,83.14
2022-10-13T16:08:12.298Z,82.71
2022-10-13T16:10:18.878Z,82.84
2022-10-13T16:12:24.904Z,82.81
2022-10-13T16:14:30.669Z,83.19
2022-10-13T16:16:35.761Z,83.32
2022-10-13T16:18:41.137Z,83.09
2022-10-13T16:20:45.655Z,83.41
2022-10-13T16:22:49.985Z,83.93
2022-10-13T16:24:54.751Z,84.08
2022-10-13T16:26:59.125Z,83.91
2022-10-13T16:29:04.694Z,84.61
2022-10-13T16:31:13.966Z,84.63
2022-10-13T16:33:19.499Z,84.75
2022-10-13T16:35:23.676Z,84.95
2022-10-13T16:37:27.819Z,84.80
2022-10-13T16:39:32.476Z,85.06
2022-10-13T16:41:38.331Z,85.55
2022-10-13T16:43:43.917Z,85.61
2022-10-13T16:45:59.903Z,85.96
2022-10-13T16:48:06.909Z,86.67
2022-10-13T16:50:12.366Z,86.37
2022-10-13T16:52:16.604Z,87.21
2022-10-13T16:54:22.116Z,87.05
2022-10-13T16:56:28.676Z,87.65
2022-10-13T16:58:32.983Z,87.40
2022-10-13T17:00:39.407Z,87.37
2022-10-13T17:02:43.331Z,88.31
2022-10-13T17:04:49.340Z,87.68
2022-10-13T17:06:53.474Z,88.62
2022-10-13T17:08:58.446Z,88.43
2022-10-13T17:11:02.627Z,88.46
2022-10-13T17:13:06.420Z,88.96
2022-10-13T17:15:11.940Z,89.28
2022-10-13T17:17:17.161Z,88.94
2022-10-13T17:19:21.109Z,89.64
2022-10-13T17:21:26.991Z,89.80
2022-10-13T17:23:31.962Z,89.53
2022-10-13T17:25:36.208Z,90.07
2022-10-13T17:27:45.887Z,90.57
2022-10-13T17:29:50.411Z,90.33
2022-10-13T17:31:54.647Z,90.53
2022-10-13T17:34:00.841Z,90.97
2022-10-13T17:36:08.343Z,91.02
2022-10-13T17:38:14.128Z,91.57
2022-10-13T17:40:18.543Z,91.72
2022-10-13T17:42:22.572Z,92.08
2022-10-13T17:44:28.303Z,92.34
2022-10-13T17:46:38.750Z,92.30
2022-10-13T17:48:43.795Z,93.62
2022-10-13T17:50:48.109Z,93.67
2022-10-13T17:52:52.373Z,94.30
2022-10-13T17:54:57.967Z,94.06
2022-10-13T17:57:04.756Z,94.61
2022-10-13T17:59:10.063Z,95.26
2022-10-13T18:01:16.998Z,96.41
2022-10-13T18:03:22.331Z,96.56
2022-10-13T18:05:26.540Z,97.59
2022-10-13T18:07:30.574Z,98.29
2022-10-13T18:09:34.425Z,98.46
2022-10-13T18:11:43.353Z,99.31
2022-10-13T18:13:51.734Z,99.79
2022-10-13T18:15:55.745Z,99.95
2022-10-13T18:17:59.958Z,100.00
2022-10-13T18:20:06.047Z,100.00
2022-10-13T18:22:12.037Z,100.00
2022-10-13T18:24:16.348Z,100.00
2022-10-13T18:26:21.947Z,100.00
2022-10-13T18:28:30.006Z,100.00
2022-10-13T18:30:35.012Z,100.00
2022-10-13T18:32:38.715Z,100.00
2022-10-13T18:34:42.678Z,100.00
2022-10-13T18:36:48.620Z,100.00
2022-10-13T18:38:52.337Z,100.00
2022-10-13T18:41:01.331Z,100.00
2022-10-13T18:43:05.313Z,100.00
2022-10-13T18:45:11.987Z,100.00
2022-10-13T18:47:16.197Z,100.00
2022-10-13T18:49:23.324Z,100.00
2022-10-13T18:51:35.955Z,100.00
2022-10-13T18:53:42.443Z,100.00
2022-10-13T18:55:48.908Z,100.00
2022-10-13T18:57:52.978Z,100.00
2022-10-13T18:59:56.873Z,100.00
2022-10-13T19:02:08.671Z,100.00
2022-10-13T19:04:15.369Z,100.00
2022-10-13T19:06:23.481Z,100.00
2022-10-13T19:08:31.695Z,100.00
2022-10-13T19:10:35.596Z,100.00
2022-10-13T19:12:39.472Z,100.00
2022-10-13T19:14:43.192Z,100.00
2022-10-13T19:16:46.903Z,100.00
2022-10-13T19:18:53.899Z,100.00
2022-10-13T19:20:58.159Z,100.00
2022-10-13T19:23:02.144Z,100.00
2022-10-13T19:25:06.760Z,100.00
2022-10-13T19:27:11.317Z,100.00
2022-10-13T19:29:16.749Z,100.00
2022-10-13T19:31:23.698Z,100.00
2022-10-13T19:33:28.158Z,100.00
2022-10-13T19:35:33.208Z,100.00
2022-10-13T19:37:38.177Z,100.00
2022-10-13T19:39:42.170Z,100.00
2022-10-13T19:41:47.329Z,100.00
2022-10-13T19:43:51.831Z,100.00
2022-10-13T19:45:59.798Z,100.00
2022-10-13T19:48:03.793Z,100.00
2022-10-13T19:50:09.116Z,100.00
2022-10-13T19:52:15.258Z,100.00
2022-10-13T19:54:21.074Z,100.00
2022-10-13T19:56:27.232Z,100.00
2022-10-13T19:58:31.692Z,100.00
2022-10-13T20:00:37.846Z,100.00
2022-10-13T20:02:42.775Z,100.00
2022-10-13T20:04:46.597Z,100.00
2022-10-13T20:06:51.379Z,100.00
2022-10-13T20:08:56.827Z,100.00
2022-10-13T20:11:01.133Z,100.00
2022-10-13T20:13:04.972Z,100.00
2022-10-13T20:15:12.855Z,100.00
2022-10-13T20:17:19.970Z,100.00
2022-10-13T20:19:30.971Z,100.00
2022-10-13T20:21:34.933Z,100.00
2022-10-13T20:23:38.795Z,100.00
2022-10-13T20:25:44.098Z,100.00
2022-10-13T20:27:47.843Z,100.00
2022-10-13T20:29:51.866Z,100.00
2022-10-13T20:31:55.672Z,100.00
2022-10-13T20:34:00.111Z,100.00
2022-10-13T20:36:10.289Z,100.00
2022-10-13T20:38:14.220Z,100.00
2022-10-13T20:40:18.230Z,100.00
2022-10-13T20:42:23.561Z,100.00
2022-10-13T20:44:27.604Z,100.00
2022-10-13T20:46:31.545Z,100.00
2022-10-13T20:49:05.080Z,100.00
2022-10-13T20:51:02.970Z,100.00
2022-10-13T20:53:07.090Z,100.00
2022-10-13T20:55:11.484Z,100.00
2022-10-13T20:57:15.585Z,100.00
2022-10-13T20:59:23.254Z,100.00
2022-10-13T21:01:27.108Z,100.00
2022-10-13T21:03:30.989Z,100.00
2022-10-13T21:05:41.662Z,100.00
2022-10-13T21:07:45.535Z,100.00
2022-10-13T21:09:53.625Z,100.00
2022-10-13T21:12:00.868Z,100.00
2022-10-13T21:14:07.137Z,100.00
2022-10-13T21:16:14.659Z,100.00
2022-10-13T21:18:18.474Z,100.00
2022-10-13T21:20:22.356Z,100.00
2022-10-13T21:22:26.189Z,100.00
2022-10-13T21:24:30.110Z,100.00
2022-10-13T21:26:35.525Z,100.00
2022-10-13T21:28:40.336Z,100.00
2022-10-13T21:30:43.994Z,100.00
2022-10-13T21:32:49.247Z,100.00
2022-10-13T21:34:54.462Z,100.00
2022-10-13T21:36:58.318Z,100.00
2022-10-13T21:39:03.795Z,100.00
2022-10-13T21:41:10.953Z,100.00
2022-10-13T21:43:14.935Z,100.00
2022-10-13T21:45:19.181Z,100.00
2022-10-13T21:47:23.259Z,100.00
2022-10-13T21:49:28.792Z,100.00
2022-10-13T21:51:34.610Z,100.00
2022-10-13T21:53:39.121Z,100.00
2022-10-13T21:55:43.077Z,100.00
2022-10-13T21:57:46.981Z,100.00
2022-10-13T21:59:50.647Z,100.00
2022-10-13T22:01:54.284Z,100.00
2022-10-13T22:04:00.560Z,100.00
2022-10-13T22:06:14.608Z,100.00
2022-10-13T22:08:37.639Z,100.00
2022-10-13T22:10:49.818Z,100.00
2022-10-13T22:12:53.990Z,100.00
2022-10-13T22:14:58.101Z,100.00
2022-10-13T22:17:01.698Z,100.00
2022-10-13T22:19:05.971Z,100.00
2022-10-13T22:21:17.563Z,100.00
2022-10-13T22:23:21.545Z,100.00
2022-10-13T22:25:25.671Z,100.00
2022-10-13T22:27:29.882Z,100.00
2022-10-13T22:29:33.890Z,100.00
2022-10-13T22:31:38.382Z,100.00
2022-10-13T22:33:48.670Z,100.00
2022-10-13T22:35:52.609Z,100.00
2022-10-13T22:38:00.049Z,100.00
2022-10-13T22:40:04.077Z,100.00
2022-10-13T22:42:08.198Z,100.00
2022-10-13T22:44:12.520Z,100.00
2022-10-13T22:46:19.047Z,100.00
2022-10-13T22:48:22.705Z,100.00
2022-10-13T22:50:26.677Z,100.00
2022-10-13T22:52:30.589Z,100.00
2022-10-13T22:54:36.091Z,100.00
2022-10-13T22:56:41.807Z,100.00
2022-10-13T22:58:46.151Z,100.00
2022-10-13T23:00:59.096Z,100.00
2022-10-13T23:03:03.130Z,100.00
2022-10-13T23:05:07.422Z,100.00
2022-10-13T23:07:11.113Z,100.00
2022-10-13T23:09:16.053Z,100.00
2022-10-13T23:11:21.779Z,100.00
2022-10-13T23:13:25.631Z,100.00
2022-10-13T23:15:30.914Z,100.00
2022-10-13T23:17:35.539Z,100.00
2022-10-13T23:19:39.272Z,100.00
2022-10-13T23:21:42.962Z,100.00
2022-10-13T23:23:47.864Z,100.00
2022-10-13T23:25:51.642Z,100.00
2022-10-13T23:27:56.740Z,100.00
2022-10-13T23:30:00.413Z,100.00
2022-10-13T23:32:08.867Z,100.00
2022-10-13T23:34:13.633Z,100.00
2022-10-13T23:36:19.377Z,100.00
2022-10-13T23:38:27.848Z,100.00
2022-10-13T23:40:31.533Z,100.00
2022-10-13T23:42:35.291Z,100.00
2022-10-13T23:44:40.626Z,100.00
2022-10-13T23:46:44.437Z,100.00
2022-10-13T23:48:50.622Z,100.00
2022-10-13T23:50:54.476Z,100.00
2022-10-13T23:52:58.627Z,100.00
2022-10-13T23:55:02.328Z,100.00
2022-10-13T23:57:06.308Z,100.00
2022-10-13T23:59:10.318Z,100.00
